Albertson, New York
Current Conditions -  °F | °C
As of 4:51 AM on Sunday 25 Jan 2015 (Local Time) from KJFK Reporting Station
Few Clouds Few Clouds  
Wind Chill: 23°   Ceiling: Unl
Heat Index: 34°   Visibility: 10mi
Dew Point: 25°   Wind: 17mph
Humidity: 70%   Direction: 260°W
Pressure: 29.62"   Gusts: NA
Location:  40.77°N, 73.65°W
Report Text: KJFK 250951Z 26015KT 10SM FEW250 01/M04 A2962 RMK AO2 SLP030 T00111039 $
Loading
Personal Weather Stations






























Interactive Weather Map New forecast layout! Learn more

10-Day Weather Forecast

Advertisements
Track Severe Weather on mobile